Time;durP1;ratioP1;P1;durP2;ratioP2;P2;SDS_P1;SDS_P2;PMS_P1;PMS_P2;Temp;Humidity;BMP_temperature;BMP_pressure;BME280_temperature;BME280_humidity;BME280_pressure;Samples;Min_cycle;Max_cycle;Signal;HPM_P1;HPM_P2
2023/09/21 00:03:24;;;;;;;7.20;2.80;;;;;;;;;;103733;1295;544956;-75
2023/09/21 00:07:01;;;;;;;7.00;3.00;;;;;;;;;;103949;1289;545284;-75
2023/09/21 00:10:39;;;;;;;8.30;2.70;;;;;;;;;;103731;1291;545000;-75
2023/09/21 00:14:15;;;;;;;6.50;3.10;;;;;;;;;;103816;1289;544930;-75
2023/09/21 00:17:53;;;;;;;6.70;2.70;;;;;;;;;;103728;1288;544798;-75
2023/09/21 00:21:31;;;;;;;6.70;2.30;;;;;;;;;;103677;1292;544724;-75
2023/09/21 00:25:08;;;;;;;6.50;2.50;;;;;;;;;;103791;1289;545363;-75
2023/09/21 00:28:46;;;;;;;7.10;2.80;;;;;;;;;;103707;1292;545071;-74
2023/09/21 00:32:25;;;;;;;14.00;3.10;;;;;;;;;;103787;1288;545139;-74
2023/09/21 00:35:59;;;;;;;6.20;2.70;;;;;;;;;;103817;1292;545750;-76
2023/09/21 00:39:42;;;;;;;6.00;2.70;;;;;;;;;;103760;1295;544802;-75
2023/09/21 00:43:24;;;;;;;6.70;2.70;;;;;;;;;;103740;1292;544740;-75
2023/09/21 00:46:58;;;;;;;6.90;2.80;;;;;;;;;;103727;1292;545919;-75
2023/09/21 00:50:36;;;;;;;7.70;2.90;;;;;;;;;;103826;1289;544788;-74
2023/09/21 00:54:12;;;;;;;5.80;2.60;;;;;;;;;;103652;1292;544881;-76
2023/09/21 00:57:57;;;;;;;7.80;3.10;;;;;;;;;;103787;1289;545040;-75
2023/09/21 01:01:28;;;;;;;6.10;2.50;;;;;;;;;;104039;1286;545389;-75
2023/09/21 01:05:08;;;;;;;7.70;3.00;;;;;;;;;;103903;1289;544961;-74
2023/09/21 01:08:42;;;;;;;6.80;2.50;;;;;;;;;;103735;1292;545803;-76
2023/09/21 01:12:22;;;;;;;7.30;2.60;;;;;;;;;;103883;1292;545139;-76
2023/09/21 01:15:58;;;;;;;7.40;2.60;;;;;;;;;;103725;1291;544824;-75
2023/09/21 01:19:34;;;;;;;6.10;2.40;;;;;;;;;;104007;1300;544981;-75
2023/09/21 01:23:17;;;;;;;6.10;2.60;;;;;;;;;;103762;1291;544778;-75
2023/09/21 01:26:49;;;;;;;7.40;2.80;;;;;;;;;;103902;1289;546232;-75
2023/09/21 01:30:27;;;;;;;6.30;2.80;;;;;;;;;;103875;1291;546530;-76
2023/09/21 01:34:04;;;;;;;7.70;3.00;;;;;;;;;;103954;1294;544963;-74
2023/09/21 01:37:42;;;;;;;5.90;2.50;;;;;;;;;;103700;1291;544895;-75
2023/09/21 01:41:21;;;;;;;13.00;3.40;;;;;;;;;;103674;1291;545660;-75
2023/09/21 01:44:59;;;;;;;6.80;2.80;;;;;;;;;;103924;1290;545323;-74
2023/09/21 01:48:35;;;;;;;5.40;2.50;;;;;;;;;;103955;1288;544963;-75
2023/09/21 01:52:42;;;;;;;6.00;2.60;;;;;;;;;;103661;1303;547875;-74
2023/09/21 01:55:50;;;;;;;6.10;2.40;;;;;;;;;;103707;1291;544978;-75
2023/09/21 01:59:26;;;;;;;6.00;2.60;;;;;;;;;;103675;1292;545244;-75
2023/09/21 02:03:12;;;;;;;7.70;2.90;;;;;;;;;;103613;1295;547801;-76
2023/09/21 02:06:41;;;;;;;7.10;2.60;;;;;;;;;;104026;1291;545181;-75
2023/09/21 02:10:19;;;;;;;6.70;2.60;;;;;;;;;;103548;1294;544918;-75
2023/09/21 02:13:56;;;;;;;7.20;2.70;;;;;;;;;;103760;1289;544994;-75
2023/09/21 02:17:33;;;;;;;5.30;2.70;;;;;;;;;;103752;1289;544840;-75
2023/09/21 02:21:14;;;;;;;6.60;2.90;;;;;;;;;;103774;1291;544867;-76
2023/09/21 02:24:49;;;;;;;6.30;2.60;;;;;;;;;;103742;1289;545339;-75
2023/09/21 02:28:26;;;;;;;6.10;2.80;;;;;;;;;;103776;1289;545759;-74
2023/09/21 02:32:03;;;;;;;6.40;2.70;;;;;;;;;;103754;1291;546028;-76
2023/09/21 02:35:41;;;;;;;6.60;2.60;;;;;;;;;;103940;1291;545002;-75
2023/09/21 02:39:18;;;;;;;8.60;2.90;;;;;;;;;;103644;1290;545493;-76
2023/09/21 02:42:53;;;;;;;6.90;2.60;;;;;;;;;;103889;1295;545184;-76
2023/09/21 02:46:43;;;;;;;6.60;2.90;;;;;;;;;;103681;1291;547987;-75
2023/09/21 02:50:14;;;;;;;5.90;2.60;;;;;;;;;;103784;1291;545080;-76
2023/09/21 02:54:32;;;;;;;7.10;3.20;;;;;;;;;;105225;1277;545401;-75
2023/09/21 03:11:14;;;;;;;6.90;3.20;;;;;;;;;;103650;1294;545338;-76
2023/09/21 03:50:47;;;;;;;7.70;3.20;;;;;;;;;;103624;1293;548057;-76
2023/09/21 03:58:28;;;;;;;7.50;3.10;;;;;;;;;;103698;1294;547226;-76
2023/09/21 04:07:02;;;;;;;8.40;2.90;;;;;;;;;;104974;1282;545334;-76
2023/09/21 04:25:49;;;;;;;7.10;3.20;;;;;;;;;;104019;1291;544933;-76
2023/09/21 04:42:42;;;;;;;6.50;3.30;;;;;;;;;;104902;1280;548004;-76
2023/09/21 04:50:48;;;;;;;8.00;3.60;;;;;;;;;;103847;1291;545480;-74
2023/09/21 04:53:31;;;;;;;10.30;3.80;;;;;;;;;;103959;1288;545546;-75
2023/09/21 04:57:08;;;;;;;9.30;4.10;;;;;;;;;;104105;1285;544769;-75
2023/09/21 05:00:45;;;;;;;10.10;3.90;;;;;;;;;;103755;1292;545057;-75
2023/09/21 05:04:22;;;;;;;12.10;3.80;;;;;;;;;;103782;1291;544786;-74
2023/09/21 05:08:03;;;;;;;11.60;3.70;;;;;;;;;;103943;1289;544985;-75
2023/09/21 05:11:40;;;;;;;12.90;4.60;;;;;;;;;;103793;1292;545010;-75
2023/09/21 05:15:15;;;;;;;9.30;4.20;;;;;;;;;;103686;1297;545726;-75
2023/09/21 05:18:53;;;;;;;13.00;4.00;;;;;;;;;;103816;1289;544707;-75
2023/09/21 05:22:32;;;;;;;8.60;3.70;;;;;;;;;;103665;1292;544920;-74
2023/09/21 05:26:08;;;;;;;8.60;3.40;;;;;;;;;;103802;1292;545716;-75
2023/09/21 05:29:45;;;;;;;8.50;3.10;;;;;;;;;;103831;1289;544948;-75
2023/09/21 05:33:23;;;;;;;9.20;3.40;;;;;;;;;;104045;1289;544715;-76
2023/09/21 05:37:00;;;;;;;11.20;4.10;;;;;;;;;;103636;1291;545633;-76
2023/09/21 05:40:40;;;;;;;9.80;3.60;;;;;;;;;;104011;1289;545501;-74
2023/09/21 05:44:15;;;;;;;8.50;3.40;;;;;;;;;;104000;1292;544715;-75
2023/09/21 05:47:52;;;;;;;9.50;3.90;;;;;;;;;;103784;1289;544960;-75
2023/09/21 05:51:30;;;;;;;9.10;3.50;;;;;;;;;;103768;1290;544829;-74
2023/09/21 05:55:11;;;;;;;12.20;3.50;;;;;;;;;;103781;1289;544994;-75
2023/09/21 05:58:51;;;;;;;12.20;3.90;;;;;;;;;;103643;1289;548056;-75
2023/09/21 06:02:22;;;;;;;8.80;3.60;;;;;;;;;;104030;1289;545022;-75
2023/09/21 06:06:00;;;;;;;9.70;3.30;;;;;;;;;;103767;1289;544734;-75
2023/09/21 06:09:37;;;;;;;11.50;3.30;;;;;;;;;;103769;1289;545069;-74
2023/09/21 06:13:14;;;;;;;9.40;3.20;;;;;;;;;;103749;1291;545503;-76
2023/09/21 06:16:52;;;;;;;10.80;3.40;;;;;;;;;;103944;1290;545599;-75
2023/09/21 06:20:29;;;;;;;8.90;3.40;;;;;;;;;;103812;1289;545433;-75
2023/09/21 06:24:07;;;;;;;10.80;3.10;;;;;;;;;;103773;1289;545492;-75
2023/09/21 06:28:00;;;;;;;8.50;3.60;;;;;;;;;;103691;1303;547978;-76
2023/09/21 06:31:22;;;;;;;12.10;3.30;;;;;;;;;;104180;1285;545565;-75
2023/09/21 06:34:59;;;;;;;10.10;3.40;;;;;;;;;;104087;1295;544883;-75
2023/09/21 06:38:37;;;;;;;9.80;3.70;;;;;;;;;;103817;1292;545010;-75
2023/09/21 06:42:17;;;;;;;10.70;3.70;;;;;;;;;;103721;1291;544773;-75
2023/09/21 06:45:52;;;;;;;10.50;3.70;;;;;;;;;;103822;1301;544799;-76
2023/09/21 06:49:29;;;;;;;9.90;3.30;;;;;;;;;;103734;1289;544952;-75
2023/09/21 06:53:07;;;;;;;8.50;3.20;;;;;;;;;;103729;1291;545496;-75
2023/09/21 06:56:44;;;;;;;10.40;3.10;;;;;;;;;;103988;1289;545943;-76
2023/09/21 07:00:21;;;;;;;13.80;3.20;;;;;;;;;;103985;1292;545245;-74
2023/09/21 07:04:00;;;;;;;6.30;2.70;;;;;;;;;;103963;1289;545578;-76
2023/09/21 07:07:36;;;;;;;9.00;3.00;;;;;;;;;;103808;1301;544704;-75
2023/09/21 07:11:15;;;;;;;9.40;3.00;;;;;;;;;;103800;1289;545070;-75
2023/09/21 07:14:51;;;;;;;7.40;2.90;;;;;;;;;;103766;1291;544909;-75
2023/09/21 07:18:29;;;;;;;10.30;3.30;;;;;;;;;;103767;1292;545532;-75
2023/09/21 07:22:06;;;;;;;9.60;2.90;;;;;;;;;;103722;1289;545586;-75
2023/09/21 07:25:44;;;;;;;9.70;2.90;;;;;;;;;;103769;1292;544797;-75
2023/09/21 07:29:23;;;;;;;6.90;2.90;;;;;;;;;;103971;1300;544824;-75
2023/09/21 07:33:00;;;;;;;7.90;2.60;;;;;;;;;;103766;1291;545026;-75
2023/09/21 07:36:38;;;;;;;8.00;2.70;;;;;;;;;;103733;1289;545434;-73
2023/09/21 07:40:15;;;;;;;7.90;2.80;;;;;;;;;;103634;1290;546176;-75
2023/09/21 07:43:51;;;;;;;7.90;3.10;;;;;;;;;;103868;1288;545866;-76
2023/09/21 07:47:29;;;;;;;8.10;2.80;;;;;;;;;;104062;1286;544992;-75
2023/09/21 07:51:07;;;;;;;8.50;2.70;;;;;;;;;;103824;1292;545747;-75
2023/09/21 07:54:44;;;;;;;7.50;2.80;;;;;;;;;;103733;1294;544984;-74
2023/09/21 07:58:21;;;;;;;8.30;2.80;;;;;;;;;;103519;1295;545055;-76
2023/09/21 08:02:00;;;;;;;8.70;2.60;;;;;;;;;;103763;1289;544873;-75
2023/09/21 08:05:36;;;;;;;7.40;2.70;;;;;;;;;;103702;1289;545096;-75
2023/09/21 08:09:14;;;;;;;6.40;2.50;;;;;;;;;;103775;1292;545723;-79
2023/09/21 08:12:51;;;;;;;8.60;2.50;;;;;;;;;;104070;1289;545031;-73
2023/09/21 08:16:29;;;;;;;6.70;2.60;;;;;;;;;;103713;1291;545032;-74
2023/09/21 08:20:10;;;;;;;7.90;2.70;;;;;;;;;;103785;1292;545029;-73
2023/09/21 08:23:42;;;;;;;12.00;2.80;;;;;;;;;;104015;1289;546027;-75
2023/09/21 08:27:28;;;;;;;8.80;3.00;;;;;;;;;;104604;1283;544766;-74
2023/09/21 08:31:02;;;;;;;12.50;3.20;;;;;;;;;;103770;1295;545075;-75
2023/09/21 08:34:40;;;;;;;10.00;2.90;;;;;;;;;;103822;1288;545408;-76
2023/09/21 08:38:17;;;;;;;8.30;2.90;;;;;;;;;;104007;1292;545720;-76
2023/09/21 08:41:54;;;;;;;9.20;3.20;;;;;;;;;;103755;1299;544759;-76
2023/09/21 08:45:33;;;;;;;9.20;2.90;;;;;;;;;;104887;1282;545706;-76
2023/09/21 08:49:10;;;;;;;24.10;4.20;;;;;;;;;;103778;1292;545722;-75
2023/09/21 08:52:48;;;;;;;9.10;2.80;;;;;;;;;;103736;1292;545425;-75
2023/09/21 08:56:26;;;;;;;7.30;2.50;;;;;;;;;;104271;1289;544867;-75
2023/09/21 09:00:05;;;;;;;9.70;3.90;;;;;;;;;;103821;1288;545078;-76
2023/09/21 09:03:40;;;;;;;8.30;2.80;;;;;;;;;;103884;1292;544970;-74
2023/09/21 09:07:18;;;;;;;7.30;2.90;;;;;;;;;;103922;1294;544807;-74
2023/09/21 09:10:54;;;;;;;7.80;2.70;;;;;;;;;;103748;1291;544916;-74
2023/09/21 09:14:32;;;;;;;8.20;2.60;;;;;;;;;;103731;1292;545063;-73
2023/09/21 09:18:09;;;;;;;8.40;2.80;;;;;;;;;;104220;1288;544717;-74
2023/09/21 09:22:10;;;;;;;9.30;2.90;;;;;;;;;;103546;1294;547989;-74
2023/09/21 09:25:39;;;;;;;8.40;2.90;;;;;;;;;;103614;1291;544805;-74
2023/09/21 09:29:05;;;;;;;7.50;2.60;;;;;;;;;;103721;1292;544782;-74
2023/09/21 09:32:44;;;;;;;9.50;2.80;;;;;;;;;;103711;1294;545050;-73
2023/09/21 09:36:17;;;;;;;7.50;2.70;;;;;;;;;;103599;1295;544890;-74
2023/09/21 09:39:56;;;;;;;10.00;3.20;;;;;;;;;;103687;1292;546462;-73
2023/09/21 09:43:35;;;;;;;10.80;3.00;;;;;;;;;;103671;1289;545073;-76
2023/09/21 09:47:09;;;;;;;10.00;3.40;;;;;;;;;;103725;1292;545051;-75
2023/09/21 09:50:55;;;;;;;7.80;3.10;;;;;;;;;;103831;1289;544730;-75
2023/09/21 09:54:29;;;;;;;8.90;2.90;;;;;;;;;;103667;1291;544857;-73
2023/09/21 09:58:08;;;;;;;6.10;2.40;;;;;;;;;;103760;1292;545014;-73
2023/09/21 10:01:45;;;;;;;13.80;2.90;;;;;;;;;;103812;1288;545891;-74
2023/09/21 10:05:26;;;;;;;7.20;2.80;;;;;;;;;;103737;1292;545085;-74
2023/09/21 10:09:00;;;;;;;9.10;2.90;;;;;;;;;;103851;1292;545823;-75
2023/09/21 10:12:37;;;;;;;6.70;2.40;;;;;;;;;;103703;1292;545540;-76
2023/09/21 10:16:17;;;;;;;6.80;2.40;;;;;;;;;;103710;1295;544779;-74
2023/09/21 10:20:10;;;;;;;8.20;2.50;;;;;;;;;;103742;1292;545045;-75
2023/09/21 10:23:33;;;;;;;6.80;2.60;;;;;;;;;;103739;1289;544966;-74
2023/09/21 10:27:06;;;;;;;6.00;2.20;;;;;;;;;;103719;1290;544837;-74
2023/09/21 10:30:43;;;;;;;8.50;2.60;;;;;;;;;;103746;1292;545182;-75
2023/09/21 10:34:24;;;;;;;15.50;3.60;;;;;;;;;;103666;1291;546421;-73
2023/09/21 10:38:11;;;;;;;7.40;2.50;;;;;;;;;;103786;1290;544983;-76
2023/09/21 10:41:42;;;;;;;6.20;2.10;;;;;;;;;;103638;1295;544850;-75
2023/09/21 10:45:14;;;;;;;5.10;2.20;;;;;;;;;;104030;1289;544996;-74
2023/09/21 10:49:12;;;;;;;6.60;2.40;;;;;;;;;;103710;1290;544798;-76
2023/09/21 10:52:30;;;;;;;8.10;2.80;;;;;;;;;;103962;1301;545004;-75
2023/09/21 10:56:06;;;;;;;8.10;2.50;;;;;;;;;;103703;1289;544921;-75
2023/09/21 10:59:50;;;;;;;7.60;2.70;;;;;;;;;;103624;1292;547977;-76
2023/09/21 11:03:21;;;;;;;11.20;4.50;;;;;;;;;;103733;1291;544877;-76
2023/09/21 11:06:59;;;;;;;10.90;5.00;;;;;;;;;;103726;1292;545480;-75
2023/09/21 11:10:36;;;;;;;9.70;3.20;;;;;;;;;;103605;1292;545065;-75
2023/09/21 11:14:14;;;;;;;7.10;2.50;;;;;;;;;;103827;1292;545299;-73
2023/09/21 11:17:51;;;;;;;8.40;2.50;;;;;;;;;;104242;1289;544895;-75
2023/09/21 11:21:29;;;;;;;6.00;2.40;;;;;;;;;;103699;1291;544951;-73
2023/09/21 11:25:07;;;;;;;5.70;2.30;;;;;;;;;;103747;1295;544938;-74
2023/09/21 11:28:43;;;;;;;6.50;2.40;;;;;;;;;;103841;1289;545217;-74
2023/09/21 11:32:22;;;;;;;6.30;2.50;;;;;;;;;;103710;1294;544835;-74
2023/09/21 11:35:58;;;;;;;7.30;2.60;;;;;;;;;;103854;1292;545858;-77
2023/09/21 11:39:41;;;;;;;6.50;2.80;;;;;;;;;;103751;1289;545337;-76
2023/09/21 11:43:13;;;;;;;7.70;2.80;;;;;;;;;;103857;1288;544922;-75
2023/09/21 11:46:52;;;;;;;9.10;3.90;;;;;;;;;;103710;1292;545139;-74
2023/09/21 11:50:33;;;;;;;10.20;3.60;;;;;;;;;;103673;1294;544782;-78
2023/09/21 11:54:06;;;;;;;13.80;3.20;;;;;;;;;;103902;1288;546043;-74
2023/09/21 11:57:44;;;;;;;10.50;3.90;;;;;;;;;;103758;1292;546166;-74
2023/09/21 12:01:22;;;;;;;8.70;3.60;;;;;;;;;;103742;1288;544929;-75
2023/09/21 12:04:58;;;;;;;6.40;2.70;;;;;;;;;;103746;1290;544803;-74
2023/09/21 12:08:36;;;;;;;7.50;2.70;;;;;;;;;;103876;1289;546285;-75
2023/09/21 12:12:13;;;;;;;9.00;2.80;;;;;;;;;;104078;1289;545086;-74
2023/09/21 12:15:55;;;;;;;8.20;3.30;;;;;;;;;;103610;1291;545150;-75
2023/09/21 12:19:31;;;;;;;8.40;2.60;;;;;;;;;;103767;1289;544798;-73
2023/09/21 12:23:06;;;;;;;10.40;2.50;;;;;;;;;;103761;1291;545916;-73
2023/09/21 12:26:43;;;;;;;8.10;2.50;;;;;;;;;;103775;1292;544742;-74
2023/09/21 12:30:20;;;;;;;8.20;2.70;;;;;;;;;;103704;1290;545982;-72
2023/09/21 12:33:57;;;;;;;10.10;6.30;;;;;;;;;;103445;1298;545457;-75
2023/09/21 12:37:36;;;;;;;6.40;2.40;;;;;;;;;;103638;1292;545280;-76
2023/09/21 12:41:14;;;;;;;6.60;2.70;;;;;;;;;;103689;1295;544996;-74
2023/09/21 12:44:50;;;;;;;7.70;2.20;;;;;;;;;;103742;1292;545193;-76
2023/09/21 12:48:28;;;;;;;7.30;2.50;;;;;;;;;;103388;1292;545225;-76
2023/09/21 12:52:05;;;;;;;9.20;2.20;;;;;;;;;;103746;1293;546346;-73
2023/09/21 12:55:44;;;;;;;8.50;2.00;;;;;;;;;;103562;1295;544885;-76
2023/09/21 12:59:20;;;;;;;11.10;2.40;;;;;;;;;;103738;1290;544957;-75
2023/09/21 13:02:57;;;;;;;7.50;2.20;;;;;;;;;;104089;1292;544852;-74
2023/09/21 13:06:38;;;;;;;9.20;2.70;;;;;;;;;;103692;1289;545897;-75
2023/09/21 13:10:15;;;;;;;7.50;2.10;;;;;;;;;;103760;1298;546045;-74
2023/09/21 13:13:50;;;;;;;5.80;2.20;;;;;;;;;;103761;1292;545413;-73
2023/09/21 13:17:27;;;;;;;6.30;1.90;;;;;;;;;;103792;1292;544939;-75
2023/09/21 13:21:05;;;;;;;6.20;2.10;;;;;;;;;;103696;1291;545317;-76
2023/09/21 13:24:44;;;;;;;5.80;2.20;;;;;;;;;;103755;1292;545106;-77
2023/09/21 13:28:19;;;;;;;8.50;2.50;;;;;;;;;;104170;1285;545276;-77
2023/09/21 13:31:59;;;;;;;7.20;2.50;;;;;;;;;;103439;1295;545017;-76
2023/09/21 13:35:42;;;;;;;5.80;2.20;;;;;;;;;;103609;1300;548335;-77
2023/09/21 13:39:11;;;;;;;7.70;2.40;;;;;;;;;;103748;1287;544959;-80
2023/09/21 13:42:49;;;;;;;7.10;2.40;;;;;;;;;;103743;1290;545703;-75
2023/09/21 13:46:27;;;;;;;8.50;2.30;;;;;;;;;;103774;1292;544707;-76
2023/09/21 13:50:05;;;;;;;7.70;2.60;;;;;;;;;;103878;1288;546056;-72
2023/09/21 13:53:42;;;;;;;7.00;2.50;;;;;;;;;;103975;1290;545181;-77
2023/09/21 13:57:28;;;;;;;7.30;2.50;;;;;;;;;;103624;1291;545498;-75
2023/09/21 14:00:57;;;;;;;6.30;2.60;;;;;;;;;;103484;1294;544801;-73
2023/09/21 14:04:34;;;;;;;7.10;2.40;;;;;;;;;;103762;1289;544903;-74
2023/09/21 14:08:11;;;;;;;7.70;2.30;;;;;;;;;;103760;1288;544863;-74
2023/09/21 14:11:49;;;;;;;8.40;2.50;;;;;;;;;;103741;1291;545511;-73
2023/09/21 14:15:27;;;;;;;9.90;2.80;;;;;;;;;;103537;1293;544797;-74
2023/09/21 14:19:02;;;;;;;7.30;2.80;;;;;;;;;;103665;1291;545915;-73
2023/09/21 14:22:41;;;;;;;6.90;2.70;;;;;;;;;;103775;1289;545772;-73
2023/09/21 14:26:19;;;;;;;7.40;2.30;;;;;;;;;;103822;1292;545005;-73
2023/09/21 14:29:56;;;;;;;7.70;2.40;;;;;;;;;;104358;1283;544961;-74
2023/09/21 14:33:34;;;;;;;6.10;2.30;;;;;;;;;;103638;1291;544961;-74
2023/09/21 14:37:11;;;;;;;6.30;2.30;;;;;;;;;;103794;1289;546073;-75
2023/09/21 14:40:49;;;;;;;8.30;2.60;;;;;;;;;;103690;1289;545879;-73
2023/09/21 14:44:26;;;;;;;9.30;2.70;;;;;;;;;;104053;1290;544692;-73
2023/09/21 14:48:04;;;;;;;7.30;2.60;;;;;;;;;;103914;1292;545658;-75
2023/09/21 14:51:41;;;;;;;8.90;2.40;;;;;;;;;;103997;1293;544847;-76
2023/09/21 14:55:19;;;;;;;7.20;3.10;;;;;;;;;;103691;1292;545128;-74
2023/09/21 14:58:56;;;;;;;6.40;2.60;;;;;;;;;;104058;1292;545202;-73
2023/09/21 15:02:31;;;;;;;8.20;2.80;;;;;;;;;;103689;1289;545865;-73
2023/09/21 15:06:11;;;;;;;8.80;2.30;;;;;;;;;;103774;1288;544907;-75
2023/09/21 15:09:49;;;;;;;8.60;2.80;;;;;;;;;;103963;1292;544984;-73
2023/09/21 15:13:26;;;;;;;7.30;2.70;;;;;;;;;;103744;1289;545435;-73
2023/09/21 15:17:04;;;;;;;9.00;2.40;;;;;;;;;;103732;1294;545954;-73
2023/09/21 15:20:41;;;;;;;8.30;2.70;;;;;;;;;;103784;1290;545314;-73
2023/09/21 15:24:19;;;;;;;8.90;3.00;;;;;;;;;;103655;1289;545807;-76
2023/09/21 15:27:56;;;;;;;7.80;2.70;;;;;;;;;;104043;1289;545747;-73
2023/09/21 15:31:34;;;;;;;8.90;2.70;;;;;;;;;;103828;1292;545100;-72
2023/09/21 15:35:10;;;;;;;8.70;2.60;;;;;;;;;;103824;1289;545172;-77
2023/09/21 15:49:11;;;;;;;8.10;2.50;;;;;;;;;;104704;1283;550736;-73
2023/09/21 15:52:03;;;;;;;7.10;2.90;;;;;;;;;;103740;1290;545485;-73
2023/09/21 15:55:41;;;;;;;10.20;3.50;;;;;;;;;;104004;1290;545578;-75
2023/09/21 15:59:18;;;;;;;9.00;3.00;;;;;;;;;;104578;1282;545108;-76
2023/09/21 16:02:56;;;;;;;9.90;3.00;;;;;;;;;;103735;1290;545768;-76
2023/09/21 16:06:30;;;;;;;8.50;2.90;;;;;;;;;;103892;1289;545032;-75
2023/09/21 16:10:13;;;;;;;8.60;2.90;;;;;;;;;;103761;1301;545023;-77
2023/09/21 16:13:50;;;;;;;9.40;3.20;;;;;;;;;;103808;1289;544829;-75
2023/09/21 16:17:29;;;;;;;8.20;2.80;;;;;;;;;;103754;1290;545501;-76
2023/09/21 16:21:05;;;;;;;9.10;3.00;;;;;;;;;;103778;1302;545140;-76
2023/09/21 16:24:43;;;;;;;9.50;2.90;;;;;;;;;;103733;1289;544852;-74
2023/09/21 16:28:20;;;;;;;8.80;3.10;;;;;;;;;;104084;1289;545412;-75
2023/09/21 16:31:58;;;;;;;9.40;3.20;;;;;;;;;;103648;1295;544977;-74
2023/09/21 16:35:37;;;;;;;7.50;2.70;;;;;;;;;;104070;1291;545518;-75
2023/09/21 16:39:24;;;;;;;12.40;3.40;;;;;;;;;;103648;1297;545539;-75
2023/09/21 16:42:50;;;;;;;7.90;3.20;;;;;;;;;;103778;1292;544790;-75
2023/09/21 16:46:27;;;;;;;8.10;2.70;;;;;;;;;;103781;1289;545196;-76
2023/09/21 16:50:05;;;;;;;7.60;2.70;;;;;;;;;;103754;1289;545443;-75
2023/09/21 16:53:42;;;;;;;8.00;2.80;;;;;;;;;;104009;1292;545516;-76
2023/09/21 16:57:39;;;;;;;9.10;3.00;;;;;;;;;;103757;1291;548050;-74
2023/09/21 17:00:57;;;;;;;9.40;3.20;;;;;;;;;;104350;1285;544789;-75
2023/09/21 17:04:34;;;;;;;7.70;3.10;;;;;;;;;;103757;1292;544708;-73
2023/09/21 17:08:12;;;;;;;9.90;3.50;;;;;;;;;;103748;1290;544963;-75
2023/09/21 17:11:52;;;;;;;7.90;3.20;;;;;;;;;;103736;1292;545734;-75
2023/09/21 17:15:27;;;;;;;10.00;3.10;;;;;;;;;;103815;1292;544736;-75
2023/09/21 17:19:06;;;;;;;8.70;3.20;;;;;;;;;;103563;1291;544790;-73
2023/09/21 17:22:44;;;;;;;8.50;3.20;;;;;;;;;;104320;1283;547964;-73
2023/09/21 17:26:19;;;;;;;8.60;3.50;;;;;;;;;;103543;1294;545732;-75
2023/09/21 17:29:58;;;;;;;9.10;3.40;;;;;;;;;;104119;1288;544997;-75
2023/09/21 17:33:35;;;;;;;7.40;3.00;;;;;;;;;;103875;1290;544785;-76
2023/09/21 17:37:12;;;;;;;10.50;3.40;;;;;;;;;;104015;1289;544989;-76
2023/09/21 17:40:49;;;;;;;11.40;3.70;;;;;;;;;;103762;1292;544798;-76
2023/09/21 17:44:31;;;;;;;11.00;3.30;;;;;;;;;;103754;1291;544962;-75
2023/09/21 17:48:05;;;;;;;9.20;3.90;;;;;;;;;;103760;1289;545641;-76
2023/09/21 17:51:42;;;;;;;10.80;3.40;;;;;;;;;;103743;1291;544763;-76
2023/09/21 17:55:19;;;;;;;8.70;3.90;;;;;;;;;;103809;1288;545487;-76
2023/09/21 17:58:58;;;;;;;9.90;3.40;;;;;;;;;;103698;1292;544702;-75
2023/09/21 18:02:35;;;;;;;8.60;3.10;;;;;;;;;;103998;1295;545379;-76
2023/09/21 18:06:12;;;;;;;9.10;3.90;;;;;;;;;;103911;1291;544736;-75
2023/09/21 18:09:51;;;;;;;9.90;3.80;;;;;;;;;;103743;1292;545687;-76
2023/09/21 18:13:26;;;;;;;10.40;3.90;;;;;;;;;;103789;1295;545043;-75
2023/09/21 18:17:04;;;;;;;9.70;4.00;;;;;;;;;;103535;1294;544879;-77
2023/09/21 18:20:41;;;;;;;8.10;3.50;;;;;;;;;;103982;1289;544935;-75
2023/09/21 18:24:19;;;;;;;9.30;3.60;;;;;;;;;;103745;1292;545576;-77
2023/09/21 18:27:56;;;;;;;8.80;3.60;;;;;;;;;;103731;1289;545697;-76
2023/09/21 18:31:38;;;;;;;8.10;3.80;;;;;;;;;;103887;1290;544811;-75
2023/09/21 18:35:11;;;;;;;8.90;3.80;;;;;;;;;;103851;1289;545405;-75
2023/09/21 18:38:54;;;;;;;12.70;3.90;;;;;;;;;;103723;1292;545436;-76
2023/09/21 18:42:27;;;;;;;10.10;3.50;;;;;;;;;;103762;1289;544839;-76
2023/09/21 18:46:04;;;;;;;10.60;3.70;;;;;;;;;;103878;1289;545896;-75
2023/09/21 18:49:42;;;;;;;8.40;3.00;;;;;;;;;;103724;1301;544737;-75
2023/09/21 18:53:18;;;;;;;11.50;3.80;;;;;;;;;;103759;1291;545445;-75
2023/09/21 18:56:56;;;;;;;8.70;3.80;;;;;;;;;;103842;1292;545346;-75
2023/09/21 19:00:55;;;;;;;9.00;4.00;;;;;;;;;;104157;1289;545211;-75
2023/09/21 19:04:11;;;;;;;10.50;4.40;;;;;;;;;;103835;1291;546112;-75
2023/09/21 19:07:49;;;;;;;11.10;3.90;;;;;;;;;;103782;1295;544806;-75
2023/09/21 19:11:45;;;;;;;7.00;3.10;;;;;;;;;;103534;1303;547812;-75
2023/09/21 19:25:25;;;;;;;12.30;4.10;;;;;;;;;;104784;1283;550295;-73
2023/09/21 19:28:18;;;;;;;10.00;4.00;;;;;;;;;;103718;1290;544765;-75
2023/09/21 19:31:56;;;;;;;11.10;4.10;;;;;;;;;;103733;1294;545627;-75
2023/09/21 19:36:16;;;;;;;12.30;4.50;;;;;;;;;;104531;1280;546083;-75
2023/09/21 19:39:20;;;;;;;10.00;4.50;;;;;;;;;;103562;1295;548006;-75
2023/09/21 19:42:50;;;;;;;10.00;4.10;;;;;;;;;;104003;1292;545130;-76
2023/09/21 19:46:26;;;;;;;9.40;3.70;;;;;;;;;;103755;1293;544988;-76
2023/09/21 20:05:16;;;;;;;7.60;3.30;;;;;;;;;;106877;1264;551597;-75
2023/09/21 20:18:43;;;;;;;11.40;4.60;;;;;;;;;;107030;1265;549279;-73
2023/09/21 20:21:34;;;;;;;10.10;4.40;;;;;;;;;;103712;1288;545828;-75
2023/09/21 20:25:12;;;;;;;13.70;4.10;;;;;;;;;;103788;1290;545385;-74
2023/09/21 20:28:50;;;;;;;10.70;3.90;;;;;;;;;;103877;1291;545586;-75
2023/09/21 20:32:28;;;;;;;9.00;3.50;;;;;;;;;;103802;1292;544727;-75
2023/09/21 20:36:05;;;;;;;12.20;4.20;;;;;;;;;;103806;1289;545677;-75
2023/09/21 20:39:51;;;;;;;10.30;4.60;;;;;;;;;;103968;1289;547955;-75
2023/09/21 20:43:44;;;;;;;11.00;4.50;;;;;;;;;;103952;1289;548527;-75
2023/09/21 20:46:58;;;;;;;12.70;4.60;;;;;;;;;;104097;1286;545917;-75
2023/09/21 20:50:35;;;;;;;7.90;4.00;;;;;;;;;;103887;1290;545792;-76
2023/09/21 20:54:12;;;;;;;10.90;3.90;;;;;;;;;;103904;1289;545597;-75
2023/09/21 20:57:50;;;;;;;12.30;4.60;;;;;;;;;;104141;1289;545005;-74
2023/09/21 21:01:27;;;;;;;12.10;4.40;;;;;;;;;;103785;1289;545930;-75
2023/09/21 21:05:11;;;;;;;9.70;3.90;;;;;;;;;;103550;1295;545150;-75
2023/09/21 21:08:42;;;;;;;9.70;4.40;;;;;;;;;;103879;1292;545739;-75
2023/09/21 21:22:42;;;;;;;8.80;3.90;;;;;;;;;;104621;1282;549779;-73
2023/09/21 21:25:34;;;;;;;13.90;4.60;;;;;;;;;;103822;1289;545158;-74
2023/09/21 21:29:12;;;;;;;9.90;4.20;;;;;;;;;;104004;1290;545067;-75
2023/09/21 21:32:49;;;;;;;13.00;4.20;;;;;;;;;;103775;1291;544808;-76
2023/09/21 21:36:27;;;;;;;11.60;4.10;;;;;;;;;;103807;1289;544942;-75
2023/09/21 21:40:04;;;;;;;10.20;4.00;;;;;;;;;;103734;1291;545457;-75
2023/09/21 21:43:42;;;;;;;10.40;4.20;;;;;;;;;;103541;1293;544749;-75
2023/09/21 21:47:19;;;;;;;10.50;4.00;;;;;;;;;;103943;1288;545873;-76
2023/09/21 21:50:57;;;;;;;10.00;4.20;;;;;;;;;;103734;1292;544687;-75
2023/09/21 21:54:34;;;;;;;11.00;4.10;;;;;;;;;;104294;1285;544692;-75
2023/09/21 21:58:08;;;;;;;11.00;4.00;;;;;;;;;;103894;1292;544946;-75
2023/09/21 22:01:50;;;;;;;9.60;4.20;;;;;;;;;;103787;1291;545078;-76
2023/09/21 22:05:28;;;;;;;8.80;4.00;;;;;;;;;;103798;1291;545048;-76
2023/09/21 22:09:08;;;;;;;10.90;4.30;;;;;;;;;;103851;1288;544993;-75
2023/09/21 22:12:43;;;;;;;11.80;4.40;;;;;;;;;;104021;1290;544798;-76
2023/09/21 22:16:20;;;;;;;10.70;4.00;;;;;;;;;;103726;1294;544836;-75
2023/09/21 22:19:58;;;;;;;9.40;4.30;;;;;;;;;;103743;1292;545226;-75
2023/09/21 22:23:35;;;;;;;10.20;4.20;;;;;;;;;;103796;1292;544872;-75
2023/09/21 22:27:13;;;;;;;10.50;4.90;;;;;;;;;;103747;1289;545057;-76
2023/09/21 22:30:52;;;;;;;9.90;4.20;;;;;;;;;;103714;1291;544982;-76
2023/09/21 22:34:27;;;;;;;10.40;4.50;;;;;;;;;;103992;1289;544848;-76
2023/09/21 22:38:05;;;;;;;10.90;4.30;;;;;;;;;;103869;1289;544960;-76
2023/09/21 22:41:43;;;;;;;11.40;4.80;;;;;;;;;;103705;1291;545495;-76
2023/09/21 22:45:20;;;;;;;12.40;4.70;;;;;;;;;;103752;1290;544952;-75
2023/09/21 22:48:59;;;;;;;9.70;4.20;;;;;;;;;;103971;1289;544972;-75
2023/09/21 22:52:35;;;;;;;10.20;3.90;;;;;;;;;;104304;1286;544815;-75
2023/09/21 22:56:13;;;;;;;10.30;4.10;;;;;;;;;;103970;1294;545187;-75
2023/09/21 22:59:50;;;;;;;10.10;3.70;;;;;;;;;;104189;1292;544946;-75
2023/09/21 23:03:27;;;;;;;12.20;3.90;;;;;;;;;;103736;1292;545380;-75
2023/09/21 23:07:05;;;;;;;11.20;4.10;;;;;;;;;;104015;1292;544792;-76
2023/09/21 23:10:45;;;;;;;9.90;3.60;;;;;;;;;;103729;1291;545652;-75
2023/09/21 23:14:20;;;;;;;10.10;2.60;;;;;;;;;;104539;1283;544763;-77
2023/09/21 23:17:57;;;;;;;9.00;3.00;;;;;;;;;;103621;1293;545561;-75
2023/09/21 23:21:35;;;;;;;8.40;2.80;;;;;;;;;;103737;1292;544902;-76
2023/09/21 23:35:12;;;;;;;10.00;3.00;;;;;;;;;;104732;1292;547929;-76